createdAt,value
2023-05-03T00:02:16.438Z,5.65
2023-05-03T00:04:46.375Z,6.68
2023-05-03T00:07:14.599Z,6.03
2023-05-03T00:09:42.129Z,4.95
2023-05-03T00:12:09.597Z,7.00
2023-05-03T00:14:37.053Z,4.88
2023-05-03T00:17:04.472Z,5.18
2023-05-03T00:19:33.590Z,4.38
2023-05-03T00:22:01.193Z,5.45
2023-05-03T00:24:28.662Z,4.68
2023-05-03T00:26:56.040Z,4.10
2023-05-03T00:29:23.554Z,8.45
2023-05-03T00:31:51.224Z,5.75
2023-05-03T00:34:18.718Z,6.78
2023-05-03T00:36:46.252Z,4.85
2023-05-03T00:39:14.275Z,4.78
2023-05-03T00:41:41.970Z,5.47
2023-05-03T00:44:09.349Z,4.80
2023-05-03T00:46:36.725Z,7.03
2023-05-03T00:49:06.902Z,4.70
2023-05-03T00:51:34.299Z,4.85
2023-05-03T00:54:01.684Z,5.80
2023-05-03T00:56:32.962Z,6.13
2023-05-03T00:59:06.516Z,5.35
2023-05-03T01:01:34.173Z,5.45
2023-05-03T01:04:06.338Z,8.70
2023-05-03T01:07:00.692Z,8.15
2023-05-03T01:09:58.805Z,5.78
2023-05-03T01:12:47.657Z,6.18
2023-05-03T01:15:28.559Z,6.85
2023-05-03T01:18:08.180Z,6.20
2023-05-03T01:20:37.511Z,7.10
2023-05-03T01:23:30.336Z,5.78
2023-05-03T01:26:01.096Z,6.78
2023-05-03T01:28:28.508Z,7.10
2023-05-03T01:30:57.763Z,8.15
2023-05-03T01:33:33.662Z,7.63
2023-05-03T01:36:20.883Z,9.05
2023-05-03T01:38:51.821Z,7.25
2023-05-03T01:41:22.350Z,8.07
2023-05-03T01:43:51.763Z,7.22
2023-05-03T01:46:19.338Z,8.00
2023-05-03T01:48:47.863Z,7.57
2023-05-03T01:51:15.299Z,7.40
2023-05-03T01:53:43.580Z,8.82
2023-05-03T01:56:11.005Z,8.60
2023-05-03T01:58:38.364Z,9.45
2023-05-03T02:01:08.031Z,10.35
2023-05-03T02:03:35.632Z,10.80
2023-05-03T02:06:03.036Z,9.07
2023-05-03T02:08:30.776Z,9.80
2023-05-03T02:10:58.236Z,9.57
2023-05-03T02:13:26.008Z,10.18
2023-05-03T02:15:53.637Z,8.80
2023-05-03T02:18:22.315Z,10.95
2023-05-03T02:20:49.644Z,8.18
2023-05-03T02:23:16.954Z,10.65
2023-05-03T02:25:44.468Z,8.48
2023-05-03T02:28:13.470Z,8.82
2023-05-03T02:30:40.959Z,9.00
2023-05-03T02:33:08.556Z,10.07
2023-05-03T02:35:38.005Z,11.23
2023-05-03T02:38:06.363Z,9.65
2023-05-03T02:40:33.828Z,10.35
2023-05-03T02:43:02.773Z,10.80
2023-05-03T02:45:31.969Z,15.70
2023-05-03T02:47:59.891Z,10.45
2023-05-03T02:50:28.228Z,10.30
2023-05-03T02:52:55.593Z,9.50
2023-05-03T02:55:23.240Z,10.80
2023-05-03T02:57:50.819Z,12.75
2023-05-03T03:00:20.280Z,12.25
2023-05-03T03:02:47.865Z,10.70
2023-05-03T03:05:15.460Z,10.15
2023-05-03T03:07:48.593Z,10.90
2023-05-03T03:10:16.194Z,12.05
2023-05-03T03:12:43.792Z,10.05
2023-05-03T03:15:17.774Z,11.27
2023-05-03T03:17:46.065Z,11.73
2023-05-03T03:20:13.582Z,11.57
2023-05-03T03:22:45.563Z,9.20
2023-05-03T03:25:13.241Z,9.07
2023-05-03T03:27:40.851Z,9.40
2023-05-03T03:30:09.393Z,10.50
2023-05-03T03:32:45.130Z,8.13
2023-05-03T03:35:17.478Z,9.10
2023-05-03T03:37:44.877Z,8.65
2023-05-03T03:40:12.860Z,9.50
2023-05-03T03:42:40.897Z,9.70
2023-05-03T03:45:08.973Z,9.93
2023-05-03T03:47:36.464Z,9.15
2023-05-03T03:50:07.013Z,8.07
2023-05-03T03:52:35.791Z,8.20
2023-05-03T03:55:03.451Z,7.97
2023-05-03T03:57:31.656Z,10.73
2023-05-03T04:00:00.099Z,10.45
2023-05-03T04:02:29.519Z,7.32
2023-05-03T04:04:57.387Z,8.00
2023-05-03T04:07:24.708Z,8.85
2023-05-03T04:09:52.193Z,9.70
2023-05-03T04:12:19.754Z,10.05
2023-05-03T04:14:47.421Z,10.60
2023-05-03T04:17:15.403Z,11.07
2023-05-03T04:19:43.755Z,11.27
2023-05-03T04:22:12.576Z,9.80
2023-05-03T04:24:40.708Z,10.98
2023-05-03T04:27:09.806Z,9.82
2023-05-03T04:29:39.603Z,9.60
2023-05-03T04:32:07.847Z,9.63
2023-05-03T04:34:37.757Z,10.10
2023-05-03T04:37:06.664Z,11.07
2023-05-03T04:39:34.216Z,10.18
2023-05-03T04:42:02.907Z,10.18
2023-05-03T04:44:30.442Z,11.02
2023-05-03T04:47:01.865Z,9.98
2023-05-03T04:49:30.384Z,10.93
2023-05-03T04:51:58.148Z,9.77
2023-05-03T04:54:26.479Z,10.90
2023-05-03T04:56:57.792Z,10.85
2023-05-03T04:59:25.855Z,12.52
2023-05-03T05:01:53.546Z,10.20
2023-05-03T05:04:21.272Z,10.80
2023-05-03T05:06:54.494Z,9.45
2023-05-03T05:09:28.462Z,11.38
2023-05-03T05:11:58.613Z,9.85
2023-05-03T05:14:31.731Z,13.48
2023-05-03T05:16:59.453Z,9.95
2023-05-03T05:19:27.493Z,9.90
2023-05-03T05:21:55.659Z,11.90
2023-05-03T05:24:27.293Z,12.60
2023-05-03T05:26:55.058Z,9.35
2023-05-03T05:29:22.491Z,9.95
2023-05-03T05:31:50.149Z,12.45
2023-05-03T05:34:17.653Z,12.82
2023-05-03T05:36:45.684Z,11.07
2023-05-03T05:39:13.649Z,14.52
2023-05-03T05:41:41.557Z,14.18
2023-05-03T05:44:09.335Z,13.15
2023-05-03T05:46:36.805Z,10.70
2023-05-03T05:49:04.828Z,14.32
2023-05-03T05:51:32.624Z,11.60
2023-05-03T05:54:09.241Z,11.77
2023-05-03T05:56:36.816Z,13.18
2023-05-03T05:59:07.991Z,11.25
2023-05-03T06:01:35.649Z,10.70
2023-05-03T06:04:04.729Z,11.95
2023-05-03T06:06:34.157Z,11.07
2023-05-03T06:09:07.013Z,13.32
2023-05-03T06:11:40.611Z,11.02
2023-05-03T06:14:09.570Z,10.50
2023-05-03T06:16:40.315Z,12.13
2023-05-03T06:19:08.790Z,14.23
2023-05-03T06:21:36.139Z,11.07
2023-05-03T06:24:03.964Z,11.35
2023-05-03T06:26:31.464Z,11.63
2023-05-03T06:29:00.813Z,11.20
2023-05-03T06:31:28.562Z,12.10
2023-05-03T06:33:56.573Z,12.32
2023-05-03T06:36:24.016Z,14.05
2023-05-03T06:38:51.854Z,12.65
2023-05-03T06:41:19.229Z,11.68
2023-05-03T06:43:46.690Z,12.05
2023-05-03T06:46:17.233Z,10.95
2023-05-03T06:48:46.585Z,13.70
2023-05-03T06:51:14.704Z,11.70
2023-05-03T06:53:42.066Z,16.25
2023-05-03T06:56:09.491Z,12.35
2023-05-03T06:58:36.861Z,12.73
2023-05-03T07:01:04.278Z,13.70
2023-05-03T07:03:31.736Z,15.68
2023-05-03T07:05:59.671Z,12.50
2023-05-03T07:08:26.989Z,12.07
2023-05-03T07:10:54.473Z,13.45
2023-05-03T07:13:21.858Z,12.57
2023-05-03T07:15:49.432Z,12.63
2023-05-03T07:18:16.854Z,15.25
2023-05-03T07:20:44.320Z,14.57
2023-05-03T07:23:11.732Z,14.90
2023-05-03T07:25:39.460Z,15.05
2023-05-03T07:28:06.818Z,15.82
2023-05-03T07:30:34.279Z,16.13
2023-05-03T07:33:01.736Z,15.98
2023-05-03T07:35:29.979Z,15.48
2023-05-03T07:37:57.326Z,15.13
2023-05-03T07:40:24.840Z,18.83
2023-05-03T07:42:52.207Z,13.85
2023-05-03T07:45:20.949Z,15.30
2023-05-03T07:47:48.258Z,13.75
2023-05-03T07:50:15.829Z,15.13
2023-05-03T07:52:43.495Z,15.00
2023-05-03T07:55:11.007Z,13.95
2023-05-03T07:57:38.395Z,13.77
2023-05-03T08:00:06.661Z,16.33
2023-05-03T08:02:41.094Z,16.65
2023-05-03T08:05:10.422Z,15.90
2023-05-03T08:07:37.923Z,15.25
2023-05-03T08:10:06.626Z,12.35
2023-05-03T08:12:34.154Z,17.35
2023-05-03T08:15:04.587Z,13.55
2023-05-03T08:17:32.128Z,16.05
2023-05-03T08:19:59.538Z,14.50
2023-05-03T08:22:27.040Z,14.38
2023-05-03T08:24:56.495Z,14.77
2023-05-03T08:27:25.743Z,14.05
2023-05-03T08:29:53.171Z,20.52
2023-05-03T08:32:21.348Z,14.02
2023-05-03T08:34:49.681Z,20.73
2023-05-03T08:37:20.154Z,14.00
2023-05-03T08:39:47.591Z,17.15
2023-05-03T08:42:15.391Z,17.83
2023-05-03T08:44:50.990Z,8.48
2023-05-03T08:47:18.456Z,9.07
2023-05-03T08:49:47.287Z,4.68
2023-05-03T08:52:16.654Z,5.38
2023-05-03T08:54:45.397Z,4.03
2023-05-03T08:57:15.062Z,4.50
2023-05-03T09:00:01.754Z,5.88
2023-05-03T09:02:30.066Z,3.00
2023-05-03T09:04:58.402Z,2.45
2023-05-03T09:07:25.919Z,5.47
2023-05-03T09:09:54.889Z,3.78
2023-05-03T09:12:35.888Z,3.78
2023-05-03T09:15:04.595Z,4.40
2023-05-03T09:17:32.049Z,6.32
2023-05-03T09:20:00.597Z,4.75
2023-05-03T09:22:33.617Z,7.38
2023-05-03T09:25:01.478Z,7.60
2023-05-03T09:27:28.765Z,5.50
2023-05-03T09:29:56.255Z,6.10
2023-05-03T09:32:24.319Z,9.73
2023-05-03T09:34:51.973Z,7.63
2023-05-03T09:37:36.459Z,6.53
2023-05-03T09:40:11.663Z,4.70
2023-05-03T09:42:43.660Z,4.25
2023-05-03T09:45:11.373Z,3.13
2023-05-03T09:47:52.511Z,3.20
2023-05-03T09:50:20.415Z,5.57
2023-05-03T09:52:51.317Z,7.70
2023-05-03T09:55:19.678Z,7.13
2023-05-03T09:57:48.006Z,5.60
2023-05-03T10:00:17.275Z,3.50
2023-05-03T10:02:45.655Z,5.47
2023-05-03T10:05:14.008Z,5.38
2023-05-03T10:07:43.398Z,2.92
2023-05-03T10:10:11.458Z,3.13
2023-05-03T10:12:38.870Z,3.45
2023-05-03T10:15:08.254Z,2.28
2023-05-03T10:20:32.439Z,0.75
2023-05-03T10:23:12.326Z,1.75
2023-05-03T10:26:00.759Z,2.70
2023-05-03T10:28:28.105Z,1.48
2023-05-03T10:30:56.222Z,1.30
2023-05-03T10:33:35.666Z,1.92
2023-05-03T10:36:10.001Z,2.75
2023-05-03T10:38:37.397Z,3.10
2023-05-03T10:41:06.895Z,3.50
2023-05-03T10:43:34.284Z,3.67
2023-05-03T10:46:06.705Z,3.88
2023-05-03T10:48:35.432Z,4.25
2023-05-03T10:51:36.757Z,3.78
2023-05-03T10:54:04.232Z,6.55
2023-05-03T10:56:31.676Z,5.03
2023-05-03T10:58:59.300Z,7.18
2023-05-03T11:01:28.012Z,4.88
2023-05-03T11:04:10.324Z,5.72
2023-05-03T11:06:41.190Z,4.55
2023-05-03T11:09:10.389Z,4.15
2023-05-03T11:11:39.817Z,4.30
2023-05-03T11:14:08.983Z,4.80
2023-05-03T11:16:37.225Z,3.42
2023-05-03T11:19:06.109Z,1.35
2023-05-03T11:21:33.460Z,2.53
2023-05-03T11:24:01.787Z,1.60
2023-05-03T11:26:29.140Z,1.08
2023-05-03T11:28:56.930Z,1.10
2023-05-03T11:31:24.510Z,1.55
2023-05-03T11:33:52.137Z,1.10
2023-05-03T11:36:20.084Z,1.08
2023-05-03T11:38:47.535Z,1.85
2023-05-03T11:41:17.363Z,1.20
2023-05-03T11:43:47.644Z,1.55
2023-05-03T11:46:21.700Z,4.18
2023-05-03T11:48:49.463Z,0.95
2023-05-03T11:51:22.371Z,1.65
2023-05-03T11:53:50.341Z,1.77
2023-05-03T11:56:20.403Z,2.63
2023-05-03T11:59:00.618Z,1.23
2023-05-03T12:01:29.434Z,1.08
2023-05-03T12:03:59.709Z,2.10
2023-05-03T12:06:30.618Z,1.17
2023-05-03T12:08:59.639Z,0.98
2023-05-03T12:11:28.782Z,1.52
2023-05-03T12:16:47.164Z,1.20
2023-05-03T12:19:27.998Z,2.95
2023-05-03T12:24:33.387Z,2.65
2023-05-03T12:27:02.865Z,1.77
2023-05-03T12:29:34.737Z,1.75
2023-05-03T12:32:04.441Z,1.75
2023-05-03T12:34:36.671Z,2.15
2023-05-03T12:37:06.597Z,1.70
2023-05-03T12:39:35.233Z,3.25
2023-05-03T12:42:09.264Z,2.50
2023-05-03T12:44:42.290Z,4.57
2023-05-03T12:47:11.247Z,1.88
2023-05-03T12:49:39.954Z,3.25
2023-05-03T12:52:34.545Z,2.35
2023-05-03T12:54:56.065Z,2.20
2023-05-03T12:57:24.623Z,1.63
2023-05-03T13:00:02.007Z,1.27
2023-05-03T13:05:11.354Z,1.50
2023-05-03T13:07:43.038Z,6.43
2023-05-03T13:12:46.520Z,2.53
2023-05-03T13:15:14.676Z,2.10
2023-05-03T13:17:43.524Z,4.25
2023-05-03T13:20:13.754Z,3.20
2023-05-03T13:22:41.176Z,1.48
2023-05-03T13:25:09.632Z,3.03
2023-05-03T13:27:36.976Z,7.07
2023-05-03T13:30:05.074Z,1.70
2023-05-03T13:32:33.320Z,2.95
2023-05-03T13:35:01.198Z,3.10
2023-05-03T13:37:28.640Z,2.00
2023-05-03T13:39:58.955Z,3.45
2023-05-03T13:42:26.415Z,3.95
2023-05-03T13:44:53.911Z,2.25
2023-05-03T13:47:21.986Z,2.15
2023-05-03T13:49:49.399Z,7.10
2023-05-03T13:52:16.905Z,1.30
2023-05-03T13:54:44.425Z,1.63
2023-05-03T13:57:11.889Z,3.63
2023-05-03T13:59:39.307Z,2.30
2023-05-03T14:02:06.668Z,2.58
2023-05-03T14:04:34.209Z,3.20
2023-05-03T14:07:03.287Z,4.15
2023-05-03T14:09:33.260Z,1.25
2023-05-03T14:12:00.685Z,1.83
2023-05-03T14:14:28.100Z,1.15
2023-05-03T14:16:55.804Z,2.97
2023-05-03T14:19:23.363Z,1.52
2023-05-03T14:21:51.512Z,2.33
2023-05-03T14:24:19.044Z,1.52
2023-05-03T14:26:46.356Z,1.55
2023-05-03T14:29:13.714Z,1.60
2023-05-03T14:31:41.130Z,1.65
2023-05-03T14:34:08.630Z,1.92
2023-05-03T14:36:38.493Z,3.88
2023-05-03T14:39:07.236Z,1.88
2023-05-03T14:41:36.890Z,2.22
2023-05-03T14:44:04.392Z,1.40
2023-05-03T14:46:31.805Z,1.30
2023-05-03T14:48:59.810Z,2.97
2023-05-03T14:51:27.987Z,1.80
2023-05-03T14:53:55.348Z,2.10
2023-05-03T14:56:22.758Z,3.03
2023-05-03T14:58:50.477Z,4.38
2023-05-03T15:01:19.518Z,2.75
2023-05-03T15:03:47.108Z,2.17
2023-05-03T15:06:14.495Z,1.67
2023-05-03T15:08:44.769Z,2.58
2023-05-03T15:11:12.934Z,2.45
2023-05-03T15:13:40.704Z,2.30
2023-05-03T15:16:08.192Z,4.28
2023-05-03T15:18:36.120Z,3.38
2023-05-03T15:21:07.351Z,3.10
2023-05-03T15:23:34.733Z,2.88
2023-05-03T15:26:02.111Z,4.82
2023-05-03T15:28:29.515Z,2.88
2023-05-03T15:30:56.881Z,3.70
2023-05-03T15:33:24.478Z,3.05
2023-05-03T15:35:51.894Z,2.15
2023-05-03T15:38:19.257Z,2.60
2023-05-03T15:40:46.550Z,2.63
2023-05-03T15:43:13.869Z,2.90
2023-05-03T15:45:41.452Z,2.03
2023-05-03T15:48:08.870Z,2.00
2023-05-03T15:50:37.314Z,3.35
2023-05-03T15:53:04.607Z,3.40
2023-05-03T15:55:32.135Z,4.38
2023-05-03T15:57:59.767Z,2.70
2023-05-03T16:00:27.756Z,2.95
2023-05-03T16:02:55.651Z,3.10
2023-05-03T16:05:23.605Z,2.45
2023-05-03T16:07:51.833Z,3.22
2023-05-03T16:10:21.747Z,2.60
2023-05-03T16:12:50.242Z,2.03
2023-05-03T16:15:18.038Z,3.35
2023-05-03T16:17:48.365Z,1.88
2023-05-03T16:20:15.851Z,1.67
2023-05-03T16:22:43.323Z,2.33
2023-05-03T16:25:11.299Z,2.58
2023-05-03T16:27:40.227Z,1.42
2023-05-03T16:30:08.911Z,1.52
2023-05-03T16:32:36.976Z,2.17
2023-05-03T16:35:04.678Z,1.73
2023-05-03T16:37:34.017Z,1.33
2023-05-03T16:40:01.602Z,1.25
2023-05-03T16:42:29.017Z,1.80
2023-05-03T16:44:56.425Z,2.03
2023-05-03T16:47:23.749Z,2.75
2023-05-03T16:49:51.502Z,2.03
2023-05-03T16:52:18.973Z,2.13
2023-05-03T16:54:46.518Z,1.80
2023-05-03T16:57:13.913Z,1.33
2023-05-03T16:59:41.382Z,2.25
2023-05-03T17:02:11.012Z,5.13
2023-05-03T17:04:38.432Z,2.25
2023-05-03T17:07:05.843Z,1.80
2023-05-03T17:09:34.627Z,6.68
2023-05-03T17:12:03.555Z,5.40
2023-05-03T17:14:31.269Z,2.10
2023-05-03T17:16:58.567Z,1.60
2023-05-03T17:19:26.675Z,4.55
2023-05-03T17:21:54.513Z,2.63
2023-05-03T17:24:21.907Z,2.67
2023-05-03T17:26:49.329Z,4.63
2023-05-03T17:29:18.734Z,2.50
2023-05-03T17:31:46.148Z,2.35
2023-05-03T17:34:13.750Z,3.25
2023-05-03T17:36:41.401Z,1.52
2023-05-03T17:39:09.039Z,2.85
2023-05-03T17:41:37.051Z,1.92
2023-05-03T17:44:04.577Z,1.48
2023-05-03T17:46:33.075Z,1.40
2023-05-03T17:49:02.392Z,1.63
2023-05-03T17:51:32.106Z,1.38
2023-05-03T17:53:59.525Z,3.08
2023-05-03T17:56:29.590Z,1.65
2023-05-03T17:58:57.442Z,1.38
2023-05-03T18:01:25.299Z,4.20
2023-05-03T18:03:52.830Z,3.33
2023-05-03T18:06:20.386Z,1.95
2023-05-03T18:08:48.390Z,3.50
2023-05-03T18:11:16.073Z,2.47
2023-05-03T18:13:44.916Z,1.95
2023-05-03T18:16:12.398Z,4.40
2023-05-03T18:18:39.795Z,1.30
2023-05-03T18:21:07.450Z,1.38
2023-05-03T18:23:35.359Z,1.52
2023-05-03T18:26:03.779Z,5.38
2023-05-03T18:28:31.210Z,2.35
2023-05-03T18:30:58.991Z,1.55
2023-05-03T18:33:26.338Z,1.45
2023-05-03T18:35:53.913Z,2.78
2023-05-03T18:38:21.841Z,1.60
2023-05-03T18:40:49.694Z,3.95
2023-05-03T18:43:17.697Z,1.70
2023-05-03T18:45:45.344Z,7.38
2023-05-03T18:48:12.889Z,2.70
2023-05-03T18:50:42.977Z,1.98
2023-05-03T18:53:13.427Z,1.52
2023-05-03T18:55:41.593Z,3.88
2023-05-03T18:58:08.960Z,2.67
2023-05-03T19:00:36.962Z,5.32
2023-05-03T19:03:05.946Z,6.95
2023-05-03T19:05:34.919Z,2.88
2023-05-03T19:08:02.357Z,4.22
2023-05-03T19:10:30.050Z,2.08
2023-05-03T19:12:57.784Z,4.80
2023-05-03T19:15:25.320Z,1.88
2023-05-03T19:17:56.054Z,3.67
2023-05-03T19:20:24.783Z,3.22
2023-05-03T19:22:52.291Z,2.15
2023-05-03T19:25:19.726Z,2.75
2023-05-03T19:27:48.048Z,2.25
2023-05-03T19:30:15.808Z,2.78
2023-05-03T19:32:44.767Z,3.00
2023-05-03T19:35:12.557Z,2.40
2023-05-03T19:37:40.084Z,5.88
2023-05-03T19:40:08.347Z,4.18
2023-05-03T19:42:35.740Z,3.65
2023-05-03T19:45:03.993Z,2.67
2023-05-03T19:47:33.040Z,4.90
2023-05-03T19:50:00.481Z,3.53
2023-05-03T19:52:27.879Z,5.07
2023-05-03T19:54:56.369Z,3.65
2023-05-03T19:57:23.884Z,4.88
2023-05-03T19:59:51.258Z,3.90
2023-05-03T20:02:18.718Z,3.38
2023-05-03T20:04:46.552Z,3.58
2023-05-03T20:07:14.367Z,3.42
2023-05-03T20:09:42.299Z,5.63
2023-05-03T20:12:10.962Z,4.28
2023-05-03T20:14:38.430Z,5.50
2023-05-03T20:17:08.795Z,5.57
2023-05-03T20:19:36.181Z,4.35
2023-05-03T20:22:04.083Z,5.57
2023-05-03T20:24:31.563Z,4.60
2023-05-03T20:26:58.928Z,2.70
2023-05-03T20:29:28.134Z,2.63
2023-05-03T20:31:55.686Z,4.75
2023-05-03T20:34:23.410Z,7.30
2023-05-03T20:36:52.778Z,2.88
2023-05-03T20:39:24.440Z,2.97
2023-05-03T20:41:52.155Z,3.22
2023-05-03T20:44:19.578Z,3.88
2023-05-03T20:46:47.198Z,2.90
2023-05-03T20:49:15.046Z,7.10
2023-05-03T20:51:42.595Z,3.45
2023-05-03T20:54:10.910Z,3.53
2023-05-03T20:56:38.407Z,4.45
2023-05-03T20:59:06.053Z,7.40
2023-05-03T21:01:33.394Z,2.83
2023-05-03T21:04:00.985Z,4.60
2023-05-03T21:06:28.310Z,2.83
2023-05-03T21:08:56.044Z,3.30
2023-05-03T21:11:23.368Z,4.43
2023-05-03T21:13:50.955Z,3.22
2023-05-03T21:16:18.570Z,5.63
2023-05-03T21:18:45.960Z,6.88
2023-05-03T21:21:14.046Z,3.88
2023-05-03T21:23:41.486Z,3.75
2023-05-03T21:26:08.828Z,5.45
2023-05-03T21:28:36.322Z,5.43
2023-05-03T21:31:03.961Z,4.95
2023-05-03T21:33:31.365Z,3.50
2023-05-03T21:36:00.303Z,2.10
2023-05-03T21:38:28.180Z,4.80
2023-05-03T21:41:04.170Z,4.97
2023-05-03T21:43:32.426Z,6.32
2023-05-03T21:45:59.729Z,5.72
2023-05-03T21:48:27.361Z,3.28
2023-05-03T21:50:57.684Z,5.32
2023-05-03T21:53:25.080Z,3.70
2023-05-03T21:55:52.373Z,2.35
2023-05-03T21:58:19.752Z,4.15
2023-05-03T22:00:47.081Z,5.63
2023-05-03T22:03:17.661Z,4.85
2023-05-03T22:05:47.758Z,3.10
2023-05-03T22:08:18.089Z,3.20
2023-05-03T22:10:46.466Z,2.83
2023-05-03T22:13:14.113Z,4.18
2023-05-03T22:15:41.922Z,4.05
2023-05-03T22:18:09.437Z,5.13
2023-05-03T22:20:36.927Z,3.70
2023-05-03T22:23:04.589Z,2.83
2023-05-03T22:25:32.517Z,3.22
2023-05-03T22:28:00.792Z,4.50
2023-05-03T22:30:28.189Z,4.32
2023-05-03T22:32:55.568Z,4.00
2023-05-03T22:35:23.174Z,3.72
2023-05-03T22:37:50.690Z,3.15
2023-05-03T22:40:18.168Z,3.72
2023-05-03T22:42:45.463Z,2.88
2023-05-03T22:45:12.813Z,10.13
2023-05-03T22:47:40.184Z,2.03
2023-05-03T22:50:08.311Z,3.47
2023-05-03T22:52:35.909Z,4.60
2023-05-03T22:55:03.567Z,4.65
2023-05-03T22:57:31.581Z,4.53
2023-05-03T22:59:59.443Z,4.80
2023-05-03T23:02:27.015Z,4.05
2023-05-03T23:04:54.883Z,7.55
2023-05-03T23:07:22.226Z,6.43
2023-05-03T23:09:49.658Z,3.90
2023-05-03T23:12:17.079Z,2.83
2023-05-03T23:14:46.006Z,4.85
2023-05-03T23:17:13.731Z,3.60
2023-05-03T23:19:43.896Z,4.28
2023-05-03T23:22:11.281Z,5.28
2023-05-03T23:24:39.554Z,6.95
2023-05-03T23:27:07.864Z,5.07
2023-05-03T23:29:37.285Z,5.15
2023-05-03T23:32:05.095Z,4.55
2023-05-03T23:34:32.940Z,6.28
2023-05-03T23:37:00.575Z,4.28
2023-05-03T23:39:27.993Z,4.60
2023-05-03T23:41:55.312Z,4.65
2023-05-03T23:44:22.669Z,3.97
2023-05-03T23:46:50.118Z,3.13
2023-05-03T23:49:17.488Z,4.28
2023-05-03T23:51:44.829Z,5.50
2023-05-03T23:54:13.156Z,3.33
2023-05-03T23:56:40.615Z,2.97
2023-05-03T23:59:08.014Z,3.65
